createdAt,value
2022-09-09T00:00:41.668Z,19.38
2022-09-09T00:03:13.028Z,19.39
2022-09-09T00:05:47.145Z,19.42
2022-09-09T00:08:19.453Z,19.44
2022-09-09T00:10:49.055Z,19.44
2022-09-09T00:13:21.534Z,19.45
2022-09-09T00:15:57.835Z,19.49
2022-09-09T00:18:30.358Z,19.43
2022-09-09T00:21:07.137Z,19.41
2022-09-09T00:23:37.712Z,19.36
2022-09-09T00:26:10.410Z,19.33
2022-09-09T00:28:42.880Z,19.36
2022-09-09T00:31:16.274Z,19.36
2022-09-09T00:33:45.849Z,19.36
2022-09-09T00:36:20.627Z,19.38
2022-09-09T00:38:53.102Z,19.33
2022-09-09T00:41:25.067Z,19.31
2022-09-09T00:44:01.113Z,19.31
2022-09-09T00:46:49.465Z,19.34
2022-09-09T00:49:23.912Z,19.29
2022-09-09T00:52:00.604Z,19.24
2022-09-09T00:54:38.107Z,19.21
2022-09-09T00:57:29.551Z,19.24
2022-09-09T01:00:18.537Z,19.23
2022-09-09T01:02:53.470Z,19.23
2022-09-09T01:05:24.427Z,19.17
2022-09-09T01:07:58.469Z,19.11
2022-09-09T01:10:31.870Z,19.10
2022-09-09T01:13:02.829Z,19.10
2022-09-09T01:15:33.062Z,19.12
2022-09-09T01:18:05.030Z,19.17
2022-09-09T01:20:37.978Z,19.20
2022-09-09T01:23:35.262Z,19.21
2022-09-09T01:26:25.880Z,19.21
2022-09-09T01:28:56.263Z,19.19
2022-09-09T01:31:27.433Z,19.19
2022-09-09T01:33:56.887Z,19.14
2022-09-09T01:36:30.965Z,19.10
2022-09-09T01:39:00.442Z,19.07
2022-09-09T01:41:32.984Z,19.01
2022-09-09T01:44:02.481Z,19.02
2022-09-09T01:46:31.959Z,19.01
2022-09-09T01:49:01.466Z,19.05
2022-09-09T01:51:30.952Z,19.07
2022-09-09T01:54:00.502Z,19.05
2022-09-09T01:56:39.543Z,19.04
2022-09-09T01:59:15.203Z,19.05
2022-09-09T02:01:50.699Z,19.06
2022-09-09T02:04:35.994Z,19.08
2022-09-09T02:07:05.871Z,19.08
2022-09-09T02:09:35.338Z,19.10
2022-09-09T02:12:11.771Z,19.17
2022-09-09T02:14:43.112Z,19.14
2022-09-09T02:17:13.921Z,19.14
2022-09-09T02:19:46.388Z,19.11
2022-09-09T02:22:15.854Z,19.07
2022-09-09T02:24:45.574Z,19.05
2022-09-09T02:27:17.638Z,19.07
2022-09-09T02:29:48.467Z,19.07
2022-09-09T02:32:18.889Z,19.10
2022-09-09T02:34:49.775Z,19.17
2022-09-09T02:37:19.338Z,19.16
2022-09-09T02:39:48.890Z,19.10
2022-09-09T02:42:21.002Z,19.16
2022-09-09T02:44:50.484Z,19.21
2022-09-09T02:47:29.216Z,19.19
2022-09-09T02:50:04.334Z,19.18
2022-09-09T02:52:37.262Z,19.20
2022-09-09T02:55:10.029Z,19.20
2022-09-09T02:57:42.406Z,19.21
2022-09-09T03:00:13.675Z,19.18
2022-09-09T03:02:43.307Z,19.16
2022-09-09T03:05:14.128Z,19.14
2022-09-09T03:07:43.579Z,19.11
2022-09-09T03:10:13.082Z,19.13
2022-09-09T03:12:45.129Z,19.14
2022-09-09T03:15:15.778Z,19.13
2022-09-09T03:17:45.229Z,19.18
2022-09-09T03:20:14.671Z,19.14
2022-09-09T03:22:44.921Z,19.17
2022-09-09T03:25:14.435Z,19.15
2022-09-09T03:27:46.492Z,19.04
2022-09-09T03:30:16.615Z,19.04
2022-09-09T03:32:49.022Z,19.06
2022-09-09T03:35:18.913Z,18.95
2022-09-09T03:37:48.453Z,18.89
2022-09-09T03:40:21.178Z,18.93
2022-09-09T03:42:53.146Z,18.96
2022-09-09T03:45:22.581Z,18.99
2022-09-09T03:47:51.984Z,18.99
2022-09-09T03:50:21.481Z,18.99
2022-09-09T03:52:51.340Z,18.95
2022-09-09T03:55:20.934Z,18.88
2022-09-09T03:57:52.897Z,18.76
2022-09-09T04:00:22.476Z,18.59
2022-09-09T04:02:55.585Z,17.98
2022-09-09T04:05:25.006Z,17.92
2022-09-09T04:07:55.239Z,17.96
2022-09-09T04:10:24.761Z,17.64
2022-09-09T04:12:56.738Z,17.40
2022-09-09T04:15:26.181Z,17.33
2022-09-09T04:17:55.624Z,17.07
2022-09-09T04:20:25.307Z,16.81
2022-09-09T04:22:54.718Z,17.13
2022-09-09T04:25:24.147Z,17.53
2022-09-09T04:27:59.632Z,17.80
2022-09-09T04:30:29.070Z,17.96
2022-09-09T04:32:58.511Z,18.05
2022-09-09T04:35:28.259Z,18.16
2022-09-09T04:37:57.694Z,18.26
2022-09-09T04:40:27.142Z,18.25
2022-09-09T04:42:59.204Z,18.25
2022-09-09T04:45:28.753Z,18.28
2022-09-09T04:47:58.234Z,18.28
2022-09-09T04:50:27.688Z,18.33
2022-09-09T04:52:57.286Z,18.27
2022-09-09T04:55:26.694Z,18.27
2022-09-09T04:57:58.753Z,18.26
2022-09-09T05:00:28.439Z,18.17
2022-09-09T05:02:57.910Z,18.24
2022-09-09T05:05:27.414Z,18.22
2022-09-09T05:07:56.834Z,18.27
2022-09-09T05:10:27.354Z,18.30
2022-09-09T05:12:59.418Z,18.31
2022-09-09T05:15:28.838Z,18.24
2022-09-09T05:18:01.279Z,18.29
2022-09-09T05:20:30.890Z,18.37
2022-09-09T05:23:00.436Z,18.42
2022-09-09T05:25:29.863Z,18.43
2022-09-09T05:28:02.049Z,18.47
2022-09-09T05:30:31.506Z,18.56
2022-09-09T05:33:00.903Z,18.60
2022-09-09T05:35:30.952Z,18.66
2022-09-09T05:38:03.194Z,18.70
2022-09-09T05:40:32.598Z,18.82
2022-09-09T05:43:06.345Z,19.01
2022-09-09T05:45:35.775Z,19.07
2022-09-09T05:48:05.497Z,19.09
2022-09-09T05:50:34.921Z,19.20
2022-09-09T05:53:04.639Z,19.37
2022-09-09T05:55:34.216Z,19.58
2022-09-09T05:58:06.223Z,19.74
2022-09-09T06:00:35.652Z,19.84
2022-09-09T06:03:05.209Z,19.82
2022-09-09T06:05:36.221Z,20.01
2022-09-09T06:08:05.632Z,20.18
2022-09-09T06:10:35.137Z,19.86
2022-09-09T06:13:07.177Z,19.57
2022-09-09T06:15:36.609Z,19.26
2022-09-09T06:18:06.131Z,19.00
2022-09-09T06:20:35.753Z,18.79
2022-09-09T06:23:05.159Z,18.68
2022-09-09T06:25:35.320Z,18.81
2022-09-09T06:28:07.421Z,18.89
2022-09-09T06:30:37.259Z,18.92
2022-09-09T06:33:06.694Z,18.82
2022-09-09T06:35:36.113Z,18.90
2022-09-09T06:38:06.827Z,18.49
2022-09-09T06:40:36.269Z,18.86
2022-09-09T06:43:08.279Z,19.66
2022-09-09T06:45:37.833Z,19.83
2022-09-09T06:48:07.454Z,19.62
2022-09-09T06:50:36.860Z,19.13
2022-09-09T06:53:06.308Z,19.39
2022-09-09T06:55:36.090Z,19.95
2022-09-09T06:58:11.538Z,20.38
2022-09-09T07:00:41.217Z,20.76
2022-09-09T07:03:11.018Z,20.94
2022-09-09T07:05:40.871Z,19.92
2022-09-09T07:08:10.296Z,19.61
2022-09-09T07:10:40.258Z,19.74
2022-09-09T07:13:12.377Z,20.00
2022-09-09T07:15:42.508Z,20.21
2022-09-09T07:18:12.871Z,20.43
2022-09-09T07:20:42.431Z,20.52
2022-09-09T07:23:12.552Z,20.33
2022-09-09T07:25:41.990Z,20.10
2022-09-09T07:28:14.035Z,20.00
2022-09-09T07:30:43.834Z,20.10
2022-09-09T07:33:13.382Z,20.19
2022-09-09T07:35:43.849Z,20.25
2022-09-09T07:38:13.381Z,20.42
2022-09-09T07:40:42.855Z,20.06
2022-09-09T07:43:17.318Z,20.08
2022-09-09T07:45:47.020Z,19.96
2022-09-09T07:48:16.518Z,20.48
2022-09-09T07:50:46.023Z,20.76
2022-09-09T07:53:15.568Z,20.87
2022-09-09T07:55:46.089Z,20.73
2022-09-09T07:58:18.144Z,20.38
2022-09-09T08:00:47.544Z,20.38
2022-09-09T08:03:17.075Z,20.59
2022-09-09T08:05:46.529Z,20.79
2022-09-09T08:08:16.267Z,21.21
2022-09-09T08:10:45.709Z,22.15
2022-09-09T08:13:18.871Z,22.59
2022-09-09T08:15:51.378Z,22.63
2022-09-09T08:18:20.818Z,22.13
2022-09-09T08:20:50.230Z,21.96
2022-09-09T08:23:19.692Z,21.83
2022-09-09T08:25:49.852Z,21.56
2022-09-09T08:28:22.186Z,21.62
2022-09-09T08:30:52.200Z,21.21
2022-09-09T08:33:21.692Z,21.35
2022-09-09T08:35:54.141Z,21.45
2022-09-09T08:38:23.579Z,21.30
2022-09-09T08:40:54.754Z,21.29
2022-09-09T08:43:26.769Z,21.49
2022-09-09T08:46:01.102Z,21.62
2022-09-09T08:48:46.842Z,22.57
2022-09-09T08:51:16.537Z,23.01
2022-09-09T08:53:47.407Z,23.11
2022-09-09T08:56:17.894Z,23.57
2022-09-09T08:58:51.866Z,23.69
2022-09-09T09:02:03.024Z,23.36
2022-09-09T09:04:42.379Z,22.87
2022-09-09T09:07:17.118Z,23.00
2022-09-09T09:09:50.439Z,23.73
2022-09-09T09:12:21.568Z,23.88
2022-09-09T09:14:53.595Z,24.27
2022-09-09T09:17:23.582Z,24.60
2022-09-09T09:19:53.306Z,25.16
2022-09-09T09:22:24.739Z,25.17
2022-09-09T09:24:56.122Z,25.16
2022-09-09T09:27:31.633Z,25.01
2022-09-09T09:30:23.895Z,24.89
2022-09-09T09:32:56.331Z,24.82
2022-09-09T09:35:26.138Z,24.81
2022-09-09T09:40:53.085Z,24.99
2022-09-09T09:43:24.183Z,25.08
2022-09-09T09:46:16.211Z,25.29
2022-09-09T09:48:47.331Z,25.70
2022-09-09T09:51:18.013Z,25.43
2022-09-09T09:53:47.422Z,25.23
2022-09-09T09:56:17.408Z,25.27
2022-09-09T09:58:54.520Z,25.30
2022-09-09T10:01:28.773Z,25.14
2022-09-09T10:04:00.859Z,24.96
2022-09-09T10:06:34.576Z,25.40
2022-09-09T10:09:05.326Z,25.50
2022-09-09T10:11:42.219Z,25.40
2022-09-09T10:14:16.333Z,25.39
2022-09-09T10:16:56.466Z,25.38
2022-09-09T10:19:33.514Z,25.67
2022-09-09T10:22:15.623Z,25.80
2022-09-09T10:25:02.267Z,26.22
2022-09-09T10:27:34.447Z,25.72
2022-09-09T10:30:14.361Z,25.36
2022-09-09T10:32:52.009Z,24.98
2022-09-09T10:35:34.741Z,25.18
2022-09-09T10:38:22.149Z,25.52
2022-09-09T10:41:16.572Z,25.47
2022-09-09T10:43:59.742Z,25.58
2022-09-09T10:46:36.459Z,25.49
2022-09-09T10:49:21.964Z,25.54
2022-09-09T10:51:55.006Z,25.99
2022-09-09T10:54:31.318Z,25.91
2022-09-09T10:57:02.578Z,25.77
2022-09-09T10:59:32.990Z,25.81
2022-09-09T11:02:03.837Z,25.97
2022-09-09T11:04:36.678Z,26.36
2022-09-09T11:07:12.053Z,26.17
2022-09-09T11:09:43.116Z,26.60
2022-09-09T11:12:14.557Z,26.36
2022-09-09T11:14:46.302Z,25.90
2022-09-09T11:17:17.866Z,25.85
2022-09-09T11:19:50.070Z,25.86
2022-09-09T11:22:22.282Z,25.69
2022-09-09T11:24:53.190Z,25.56
2022-09-09T11:27:23.012Z,25.32
2022-09-09T11:30:08.706Z,25.06
2022-09-09T11:32:57.123Z,24.82
2022-09-09T11:35:36.834Z,24.54
2022-09-09T11:38:16.177Z,24.32
2022-09-09T11:40:45.605Z,23.89
2022-09-09T11:43:16.260Z,23.41
2022-09-09T11:45:46.173Z,23.20
2022-09-09T11:48:26.867Z,23.41
2022-09-09T11:51:14.601Z,23.38
2022-09-09T11:53:53.692Z,23.17
2022-09-09T11:56:33.130Z,22.96
2022-09-09T11:59:04.797Z,22.95
2022-09-09T12:01:38.351Z,22.84
2022-09-09T12:04:35.754Z,22.86
2022-09-09T12:07:08.691Z,23.68
2022-09-09T12:09:48.222Z,24.25
2022-09-09T12:12:29.615Z,24.25
2022-09-09T12:15:03.985Z,23.77
2022-09-09T12:17:34.358Z,23.90
2022-09-09T12:20:08.310Z,23.91
2022-09-09T12:22:44.227Z,23.83
2022-09-09T12:25:23.290Z,23.83
2022-09-09T12:28:00.038Z,23.51
2022-09-09T12:30:31.649Z,23.46
2022-09-09T12:33:05.256Z,23.08
2022-09-09T12:35:34.803Z,23.62
2022-09-09T12:38:08.052Z,24.02
2022-09-09T12:40:37.953Z,23.38
2022-09-09T12:43:22.350Z,22.71
2022-09-09T12:45:57.695Z,23.18
2022-09-09T12:48:32.055Z,23.72
2022-09-09T12:51:01.749Z,23.93
2022-09-09T12:53:35.535Z,24.14
2022-09-09T12:56:08.444Z,24.32
2022-09-09T12:58:39.530Z,24.45
2022-09-09T13:01:09.331Z,25.07
2022-09-09T13:03:48.380Z,25.30
2022-09-09T13:06:28.902Z,24.60
2022-09-09T13:09:02.475Z,24.29
2022-09-09T13:11:33.230Z,24.37
2022-09-09T13:14:02.647Z,24.33
2022-09-09T13:16:36.693Z,24.18
2022-09-09T13:19:11.325Z,24.11
2022-09-09T13:21:40.966Z,23.88
2022-09-09T13:24:30.290Z,23.31
2022-09-09T13:27:01.338Z,23.26
2022-09-09T13:29:30.899Z,23.08
2022-09-09T13:32:08.883Z,22.99
2022-09-09T13:34:38.934Z,23.07
2022-09-09T13:37:09.493Z,23.14
2022-09-09T13:39:41.764Z,22.98
2022-09-09T13:42:26.562Z,22.85
2022-09-09T13:44:56.647Z,22.46
2022-09-09T13:47:30.586Z,22.20
2022-09-09T13:50:00.030Z,21.68
2022-09-09T13:52:30.238Z,21.44
2022-09-09T13:55:02.245Z,21.35
2022-09-09T13:57:31.672Z,21.31
2022-09-09T14:00:05.029Z,21.40
2022-09-09T14:02:35.287Z,21.58
2022-09-09T14:05:04.830Z,21.83
2022-09-09T14:07:34.381Z,22.02
2022-09-09T14:10:07.242Z,22.34
2022-09-09T14:12:37.233Z,22.65
2022-09-09T14:15:07.161Z,23.00
2022-09-09T14:17:37.157Z,22.89
2022-09-09T14:20:09.457Z,22.68
2022-09-09T14:22:40.157Z,23.00
2022-09-09T14:25:14.504Z,23.23
2022-09-09T14:27:44.252Z,22.71
2022-09-09T14:30:14.957Z,22.54
2022-09-09T14:32:44.343Z,23.08
2022-09-09T14:35:13.761Z,23.21
2022-09-09T14:37:43.137Z,23.27
2022-09-09T14:40:16.400Z,22.91
2022-09-09T14:42:45.873Z,23.11
2022-09-09T14:45:15.751Z,23.49
2022-09-09T14:47:45.133Z,23.81
2022-09-09T14:50:14.937Z,24.07
2022-09-09T14:52:44.346Z,24.13
2022-09-09T14:55:16.350Z,23.88
2022-09-09T14:57:46.357Z,23.96
2022-09-09T15:00:17.011Z,23.82
2022-09-09T15:02:46.461Z,23.50
2022-09-09T15:05:16.124Z,23.68
2022-09-09T15:07:45.564Z,24.11
2022-09-09T15:10:18.212Z,24.46
2022-09-09T15:12:47.652Z,24.45
2022-09-09T15:15:17.042Z,24.26
2022-09-09T15:17:46.514Z,24.19
2022-09-09T15:20:16.246Z,23.88
2022-09-09T15:22:45.681Z,23.82
2022-09-09T15:25:19.856Z,23.56
2022-09-09T15:27:49.343Z,23.01
2022-09-09T15:30:18.806Z,22.71
2022-09-09T15:32:48.209Z,22.80
2022-09-09T15:35:17.773Z,22.99
2022-09-09T15:37:47.165Z,22.85
2022-09-09T15:40:19.407Z,22.66
2022-09-09T15:42:48.939Z,22.40
2022-09-09T15:45:18.347Z,22.51
2022-09-09T15:47:48.121Z,22.66
2022-09-09T15:50:17.624Z,22.66
2022-09-09T15:52:47.333Z,22.80
2022-09-09T15:55:19.413Z,22.83
2022-09-09T15:57:48.831Z,22.41
2022-09-09T16:00:19.214Z,22.44
2022-09-09T16:02:51.912Z,22.16
2022-09-09T16:05:21.944Z,22.38
2022-09-09T16:07:51.398Z,22.52
2022-09-09T16:10:23.458Z,22.55
2022-09-09T16:12:53.957Z,22.65
2022-09-09T16:15:24.214Z,22.55
2022-09-09T16:17:53.637Z,22.55
2022-09-09T16:20:23.046Z,22.55
2022-09-09T16:22:52.485Z,22.58
2022-09-09T16:25:24.507Z,22.54
2022-09-09T16:27:54.282Z,22.43
2022-09-09T16:30:23.690Z,22.23
2022-09-09T16:32:53.094Z,21.81
2022-09-09T16:35:23.148Z,21.56
2022-09-09T16:37:52.544Z,21.54
2022-09-09T16:40:24.594Z,21.55
2022-09-09T16:42:54.030Z,21.42
2022-09-09T16:45:23.443Z,21.34
2022-09-09T16:47:52.887Z,21.24
2022-09-09T16:50:22.337Z,21.07
2022-09-09T16:52:51.765Z,20.89
2022-09-09T16:55:24.010Z,20.52
2022-09-09T16:57:54.999Z,20.14
2022-09-09T17:00:24.366Z,20.02
2022-09-09T17:02:53.827Z,19.67
2022-09-09T17:05:24.248Z,19.61
2022-09-09T17:07:53.806Z,19.87
2022-09-09T17:10:25.808Z,19.76
2022-09-09T17:12:55.322Z,19.80
2022-09-09T17:15:24.911Z,19.77
2022-09-09T17:17:55.620Z,19.74
2022-09-09T17:20:25.016Z,19.55
2022-09-09T17:22:54.428Z,19.44
2022-09-09T17:25:26.953Z,19.48
2022-09-09T17:27:56.401Z,19.57
2022-09-09T17:30:25.828Z,19.59
2022-09-09T17:32:55.244Z,19.45
2022-09-09T17:35:24.665Z,19.48
2022-09-09T17:37:54.115Z,19.57
2022-09-09T17:40:45.185Z,19.56
2022-09-09T17:43:14.834Z,19.69
2022-09-09T17:45:47.467Z,19.64
2022-09-09T17:48:16.975Z,19.73
2022-09-09T17:50:47.514Z,19.59
2022-09-09T17:53:16.965Z,19.60
2022-09-09T17:55:52.603Z,19.46
2022-09-09T17:58:22.672Z,19.49
2022-09-09T18:00:52.080Z,19.30
2022-09-09T18:03:21.514Z,19.29
2022-09-09T18:05:50.935Z,19.22
2022-09-09T18:08:20.343Z,18.99
2022-09-09T18:10:57.785Z,18.87
2022-09-09T18:13:27.299Z,18.38
2022-09-09T18:15:56.770Z,17.51
2022-09-09T18:18:26.253Z,17.32
2022-09-09T18:21:02.544Z,17.35
2022-09-09T18:23:32.597Z,17.53
2022-09-09T18:26:12.185Z,17.74
2022-09-09T18:29:12.997Z,17.29
2022-09-09T18:31:47.346Z,17.28
2022-09-09T18:34:38.853Z,17.00
2022-09-09T18:37:09.961Z,16.80
2022-09-09T18:39:39.170Z,16.36
2022-09-09T18:42:08.813Z,16.57
2022-09-09T18:44:38.251Z,16.37
2022-09-09T18:47:10.931Z,16.22
2022-09-09T18:49:40.343Z,16.11
2022-09-09T18:52:12.906Z,16.12
2022-09-09T18:54:45.929Z,16.08
2022-09-09T18:57:15.338Z,16.04
2022-09-09T18:59:44.747Z,16.06
2022-09-09T19:02:16.725Z,16.26
2022-09-09T19:04:46.101Z,16.14
2022-09-09T19:07:15.530Z,15.77
2022-09-09T19:09:44.944Z,15.63
2022-09-09T19:12:14.799Z,15.69
2022-09-09T19:14:44.427Z,15.72
2022-09-09T19:17:16.413Z,15.68
2022-09-09T19:19:45.879Z,15.97
2022-09-09T19:22:15.300Z,16.22
2022-09-09T19:24:45.837Z,16.06
2022-09-09T19:27:15.261Z,15.95
2022-09-09T19:29:45.419Z,16.02
2022-09-09T19:35:09.024Z,16.21
2022-09-09T19:37:38.534Z,16.32
2022-09-09T19:40:11.238Z,16.28
2022-09-09T19:42:40.807Z,16.39
2022-09-09T19:45:11.707Z,16.63
2022-09-09T19:47:43.999Z,16.77
2022-09-09T19:50:13.408Z,16.76
2022-09-09T19:52:43.509Z,16.84
2022-09-09T19:55:13.734Z,16.92
2022-09-09T19:57:43.147Z,17.03
2022-09-09T20:00:14.061Z,17.20
2022-09-09T20:03:02.715Z,17.28
2022-09-09T20:05:35.450Z,17.29
2022-09-09T20:08:05.535Z,17.22
2022-09-09T20:10:34.935Z,16.99
2022-09-09T20:13:04.334Z,17.01
2022-09-09T20:15:33.990Z,16.99
2022-09-09T20:18:06.215Z,16.99
2022-09-09T20:20:35.605Z,17.06
2022-09-09T20:23:04.986Z,17.13
2022-09-09T20:25:35.712Z,17.02
2022-09-09T20:28:05.930Z,17.20
2022-09-09T20:30:38.265Z,17.26
2022-09-09T20:33:10.775Z,17.26
2022-09-09T20:35:40.158Z,17.36
2022-09-09T20:38:09.685Z,17.29
2022-09-09T20:40:39.314Z,17.38
2022-09-09T20:43:09.140Z,17.38
2022-09-09T20:45:38.784Z,17.40
2022-09-09T20:48:10.794Z,17.42
2022-09-09T20:50:40.300Z,17.41
2022-09-09T20:53:09.720Z,17.39
2022-09-09T20:55:39.207Z,17.40
2022-09-09T20:58:08.656Z,17.31
2022-09-09T21:00:38.106Z,17.31
2022-09-09T21:03:10.179Z,17.31
2022-09-09T21:05:39.703Z,17.31
2022-09-09T21:08:09.686Z,17.35
2022-09-09T21:10:43.445Z,17.40
2022-09-09T21:13:13.311Z,17.45
2022-09-09T21:15:42.774Z,17.44
2022-09-09T21:18:14.843Z,17.31
2022-09-09T21:20:45.329Z,17.30
2022-09-09T21:23:14.819Z,17.19
2022-09-09T21:25:44.307Z,17.18
2022-09-09T21:28:14.163Z,17.21
2022-09-09T21:30:44.285Z,17.21
2022-09-09T21:33:16.417Z,17.03
2022-09-09T21:35:45.979Z,16.96
2022-09-09T21:38:17.391Z,16.98
2022-09-09T21:40:46.909Z,17.01
2022-09-09T21:43:16.690Z,17.03
2022-09-09T21:45:46.537Z,17.06
2022-09-09T21:48:19.202Z,16.98
2022-09-09T21:50:49.647Z,17.06
2022-09-09T21:53:20.380Z,17.18
2022-09-09T21:55:50.659Z,17.24
2022-09-09T21:58:20.944Z,17.27
2022-09-09T22:00:50.371Z,17.23
2022-09-09T22:03:22.742Z,17.23
2022-09-09T22:05:54.121Z,17.25
2022-09-09T22:08:23.749Z,17.22
2022-09-09T22:10:53.188Z,17.19
2022-09-09T22:13:22.871Z,17.13
2022-09-09T22:15:52.335Z,17.17
2022-09-09T22:18:25.276Z,17.04
2022-09-09T22:20:55.325Z,17.04
2022-09-09T22:23:25.240Z,17.15
2022-09-09T22:25:57.028Z,17.23
2022-09-09T22:28:26.447Z,17.33
2022-09-09T22:30:56.274Z,17.39
2022-09-09T22:33:28.383Z,17.46
2022-09-09T22:35:57.793Z,17.48
2022-09-09T22:38:27.226Z,17.50
2022-09-09T22:40:56.629Z,17.46
2022-09-09T22:43:26.087Z,17.22
2022-09-09T22:45:55.498Z,16.95
2022-09-09T22:48:24.923Z,17.05
2022-09-09T22:50:56.927Z,17.18
2022-09-09T22:53:26.326Z,17.24
2022-09-09T22:55:59.483Z,17.32
2022-09-09T22:58:29.150Z,17.35
2022-09-09T23:00:58.738Z,17.26
2022-09-09T23:03:28.192Z,17.30
2022-09-09T23:06:01.691Z,17.42
2022-09-09T23:08:33.447Z,17.45
2022-09-09T23:11:02.914Z,17.48
2022-09-09T23:13:33.173Z,17.51
2022-09-09T23:16:05.094Z,17.47
2022-09-09T23:18:34.540Z,17.45
2022-09-09T23:21:06.812Z,17.42
2022-09-09T23:23:38.933Z,17.40
2022-09-09T23:26:08.488Z,17.38
2022-09-09T23:28:39.077Z,17.38
2022-09-09T23:31:09.904Z,17.28
2022-09-09T23:33:39.802Z,17.30
2022-09-09T23:36:14.845Z,17.14
2022-09-09T23:38:44.267Z,17.10
2022-09-09T23:41:14.485Z,17.22
2022-09-09T23:43:45.043Z,17.25
2022-09-09T23:46:16.249Z,17.23
2022-09-09T23:48:45.885Z,17.18
2022-09-09T23:51:19.043Z,17.15
2022-09-09T23:53:51.250Z,17.15
2022-09-09T23:56:21.496Z,17.12
2022-09-09T23:58:50.920Z,17.05
